METAR AND TAF INFORMATION
METAR FOR EDDK
ADDS - METARS form results

(2308 UTC 22 May 2018)
Data provider http://aviationweather.gov/adds/metars/
 
METAR text: EDDK 222250Z 03003KT CAVOK 14/14 Q1015 NOSIG
Conditions at: EDDK (KOELN/BONN , DE) observed 2250 UTC 22 May 2018
Temperature: 14.0°C (57°F)
Dewpoint: 14.0°C (57°F) [RH = 100%]
Pressure (altimeter): 29.97 inches Hg (1015.0 mb)
Winds: from the NNE (30 degrees) at 3 MPH (3 knots; 1.6 m/s)
Visibility: 6 or more miles (10+ km)
Ceiling: ceiling and visibility are OK
Clouds: unknown
Weather: no significant weather observed at this time

METAR text: EDDK 222220Z VRB01KT CAVOK 15/14 Q1015 NOSIG
Conditions at: EDDK (KOELN/BONN , DE) observed 2220 UTC 22 May 2018
Temperature: 15.0°C (59°F)
Dewpoint: 14.0°C (57°F) [RH = 94%]
Pressure (altimeter): 29.97 inches Hg (1015.0 mb)
Winds: variable direction winds at 1 MPH (1 knots; 0.5 m/s)
Visibility: 6 or more miles (10+ km)
Ceiling: ceiling and visibility are OK
Clouds: unknown
Weather: no significant weather observed at this time

Forecast for: EDDK (KOELN/BONN , DE)
Text: TAF EDDK 221700Z 2218/2324 VRB03KT 9999 SCT025
Forecast period: 1800 UTC 22 May 2018 to 0800 UTC 23 May 2018
Forecast type: FROM: standard forecast or significant change
Winds: variable direction winds at 3 MPH (3 knots; 1.6 m/s)
Visibility: 6 or more miles (10+ km)
Clouds: scattered clouds at 2500 feet AGL
Weather: no significant weather forecast for this period
Forecast for: EDDK (KOELN/BONN , DE)
Text: TAF EDDK 221700Z 2218/2324 VRB03KT 9999 SCT025
Forecast period: 1800 UTC 22 May 2018 to 0800 UTC 23 May 2018
Forecast type: FROM: standard forecast or significant change
Winds: variable direction winds at 3 MPH (3 knots; 1.6 m/s)
Visibility: 6 or more miles (10+ km)
Clouds: scattered clouds at 2500 feet AGL
Weather: no significant weather forecast for this period
Forecast for: EDDK (KOELN/BONN , DE)
Text: TAF EDDK 221700Z 2218/2324 VRB03KT 9999 SCT025
Forecast period: 1800 to 2200 UTC 22 May 2018
Forecast type: TEMPORARY: The following changes expected for less than half the time period
Winds: from the S (170 degrees) at 12 MPH (10 knots; 5.2 m/s)
Ceiling: 2000 feet AGL
Clouds: broken clouds at 2000 feet AGL
Weather: -TSRA  (light rain associated with thunderstorm(s))
Forecast for: EDDK (KOELN/BONN , DE)
Text: TAF EDDK 221700Z 2218/2324 VRB03KT 9999 SCT025
Forecast period: 1800 to 2200 UTC 22 May 2018
Forecast type: TEMPORARY: The following changes expected for less than half the time period
Winds: from the S (170 degrees) at 12 MPH (10 knots; 5.2 m/s)
Ceiling: 2000 feet AGL
Clouds: broken clouds at 2000 feet AGL
Weather: -TSRA  (light rain associated with thunderstorm(s))
Forecast for: EDDK (KOELN/BONN , DE)
Text: TAF EDDK 221700Z 2218/2324 VRB03KT 9999 SCT025
Forecast period: 0200 to 0600 UTC 23 May 2018
Forecast type: TEMPORARY: The following changes expected for less than half the time period
Visibility: 2.80 miles (4.51 km)
Ceiling: 2000 feet AGL
Clouds: broken clouds at 2000 feet AGL
Weather: SHRA  (rain showers)
Forecast for: EDDK (KOELN/BONN , DE)
Text: TAF EDDK 221700Z 2218/2324 VRB03KT 9999 SCT025
Forecast period: 0200 to 0600 UTC 23 May 2018
Forecast type: TEMPORARY: The following changes expected for less than half the time period
Visibility: 2.80 miles (4.51 km)
Ceiling: 2000 feet AGL
Clouds: broken clouds at 2000 feet AGL
Weather: SHRA  (rain showers)
Forecast for: EDDK (KOELN/BONN , DE)
Text: TAF EDDK 221700Z 2218/2324 VRB03KT 9999 SCT025
Forecast period: 0800 UTC 23 May 2018 to 0000 UTC 24 May 2018
Forecast type: BECOMING: Conditions expected to become as follows by 1100 UTC 23 May 2018
Winds: from the NE (50 degrees) at 9 MPH (8 knots; 4.2 m/s)
Visibility: 6 or more miles (10+ km)
Clouds: scattered clouds at 2500 feet AGL
Weather: no significant weather forecast for this period
Forecast for: EDDK (KOELN/BONN , DE)
Text: TAF EDDK 221700Z 2218/2324 VRB03KT 9999 SCT025
Forecast period: 0800 UTC 23 May 2018 to 0000 UTC 24 May 2018
Forecast type: BECOMING: Conditions expected to become as follows by 1100 UTC 23 May 2018
Winds: from the NE (50 degrees) at 9 MPH (8 knots; 4.2 m/s)
Visibility: 6 or more miles (10+ km)
Clouds: scattered clouds at 2500 feet AGL
Weather: no significant weather forecast for this period

 AIRPORT MAP

 RUNWAY INFORMATION
Runway 06 Runway length 8067 ft Runway width 148 ft
Runway elevation 231 ft Runway displaced threshold 0 ft Runway heading 64
Runway 24 Runway length 8067 ft Runway width 148 ft
Runway elevation 272 ft Runway displaced threshold 0 ft Runway heading 244
Runway 14L Runway length 12516 ft Runway width 197 ft
Runway elevation 230 ft Runway displaced threshold 0 ft Runway heading 138
Runway 32R Runway length 12516 ft Runway width 197 ft
Runway elevation 302 ft Runway displaced threshold 0 ft Runway heading 318
Runway 14R Runway length 6112 ft Runway width 148 ft
Runway elevation 221 ft Runway displaced threshold 0 ft Runway heading 138
Runway 32L Runway length 6112 ft Runway width 148 ft
Runway elevation 259 ft Runway displaced threshold 0 ft Runway heading 318

 AIRPORT FREQUENCIES
Type ATIS Name ATIS Frequency 112.15 MHZ
Type CLD Name CLNC DEL Frequency 121.85 MHZ
Type DIR Name DIR Frequency 121.05 MHZ
Type GND Name GND Frequency 121.725 MHZ
Type INFO Name LANGEN INF Frequency 129.875 MHZ
Type MISC Name APRON Frequency 121.95 MHZ
Type POST Name MIL Frequency 136.25 MHZ
Type RDR Name LANGEN RAD Frequency 118.75 MHZ
Type TWR Name TWR Frequency 124.975 MHZ

 AIRPORT NEAR NAVIGATION AIDS
Type VORTAC Name Cola Frequency 108800 KHZ
Type VOR-DME Name Koln/Bonn Frequency 112150 KHZ
Type NDB Name Koln/Bonn Frequency 365 KHZ
Type NDB Name Koln/Bonn Frequency 327 KHZ
Type NDB Name Koln/Bonn Frequency 301 KHZ



Powered by Virtual Airlines Manager [v2.6.2]